createdAt,value
2017-07-19T00:01:04.582Z,19.80
2017-07-19T00:03:32.151Z,19.80
2017-07-19T00:05:59.734Z,19.80
2017-07-19T00:08:28.192Z,19.70
2017-07-19T00:10:55.868Z,19.60
2017-07-19T00:13:24.206Z,19.60
2017-07-19T00:15:51.800Z,19.60
2017-07-19T00:18:20.240Z,19.60
2017-07-19T00:20:47.798Z,19.60
2017-07-19T00:23:15.375Z,19.60
2017-07-19T00:25:42.935Z,19.60
2017-07-19T00:28:10.586Z,19.60
2017-07-19T00:30:38.165Z,19.50
2017-07-19T00:33:05.735Z,19.50
2017-07-19T00:35:33.302Z,19.40
2017-07-19T00:38:00.852Z,19.40
2017-07-19T00:40:28.420Z,19.40
2017-07-19T00:42:56.817Z,19.30
2017-07-19T00:45:24.376Z,19.30
2017-07-19T00:47:51.941Z,19.30
2017-07-19T00:50:19.492Z,19.30
2017-07-19T00:52:47.086Z,19.30
2017-07-19T00:55:14.664Z,19.30
2017-07-19T00:57:42.982Z,19.50
2017-07-19T01:00:10.575Z,19.50
2017-07-19T01:02:38.129Z,19.50
2017-07-19T01:05:05.690Z,19.40
2017-07-19T01:07:33.321Z,19.30
2017-07-19T01:10:00.890Z,19.30
2017-07-19T01:12:28.473Z,19.30
2017-07-19T01:14:56.082Z,19.40
2017-07-19T01:17:23.646Z,19.30
2017-07-19T01:19:51.318Z,19.30
2017-07-19T01:22:18.894Z,19.40
2017-07-19T01:24:46.466Z,19.30
2017-07-19T01:27:14.026Z,19.30
2017-07-19T01:29:41.607Z,19.30
2017-07-19T01:32:09.157Z,19.20
2017-07-19T01:34:36.750Z,19.30
2017-07-19T01:37:04.326Z,19.20
2017-07-19T01:39:32.650Z,19.10
2017-07-19T01:42:00.214Z,19.10
2017-07-19T01:44:27.963Z,19.20
2017-07-19T01:46:55.537Z,19.10
2017-07-19T01:49:23.094Z,19.10
2017-07-19T01:51:50.665Z,19.10
2017-07-19T01:54:18.394Z,19.20
2017-07-19T01:56:46.725Z,19.20
2017-07-19T01:59:14.642Z,19.10
2017-07-19T02:01:42.957Z,19.10
2017-07-19T02:04:10.543Z,19.00
2017-07-19T02:06:38.106Z,19.10
2017-07-19T02:09:05.659Z,19.10
2017-07-19T02:11:33.209Z,19.00
2017-07-19T02:14:00.762Z,19.10
2017-07-19T02:16:28.314Z,19.20
2017-07-19T02:18:56.917Z,19.20
2017-07-19T02:21:24.480Z,19.20
2017-07-19T02:23:52.058Z,19.30
2017-07-19T02:26:19.632Z,19.50
2017-07-19T02:28:47.189Z,19.50
2017-07-19T02:31:14.756Z,19.70
2017-07-19T02:33:42.455Z,19.70
2017-07-19T02:36:10.030Z,19.80
2017-07-19T02:38:37.599Z,19.80
2017-07-19T02:41:05.153Z,19.80
2017-07-19T02:43:32.709Z,19.80
2017-07-19T02:46:00.290Z,19.70
2017-07-19T02:48:27.846Z,19.60
2017-07-19T02:50:55.400Z,19.60
2017-07-19T02:53:22.962Z,19.50
2017-07-19T02:55:50.527Z,19.60
2017-07-19T02:58:18.099Z,19.60
2017-07-19T03:00:45.829Z,19.50
2017-07-19T03:03:13.382Z,19.60
2017-07-19T03:05:40.942Z,19.50
2017-07-19T03:08:08.497Z,19.60
2017-07-19T03:10:36.102Z,19.60
2017-07-19T03:13:03.740Z,19.50
2017-07-19T03:15:31.302Z,19.40
2017-07-19T03:17:58.868Z,19.40
2017-07-19T03:20:26.428Z,19.50
2017-07-19T03:22:54.093Z,19.50
2017-07-19T03:25:21.667Z,19.60
2017-07-19T03:27:49.218Z,19.50
2017-07-19T03:30:16.811Z,19.50
2017-07-19T03:32:44.374Z,19.50
2017-07-19T03:35:11.926Z,19.60
2017-07-19T03:37:39.485Z,19.70
2017-07-19T03:40:07.041Z,19.70
2017-07-19T03:42:34.739Z,19.60
2017-07-19T03:45:02.309Z,19.60
2017-07-19T03:47:29.882Z,19.60
2017-07-19T03:49:58.217Z,19.70
2017-07-19T03:52:25.778Z,19.70
2017-07-19T03:54:53.337Z,19.90
2017-07-19T03:57:20.885Z,20.00
2017-07-19T03:59:48.575Z,20.00
2017-07-19T04:02:16.158Z,20.00
2017-07-19T04:04:43.722Z,20.10
2017-07-19T04:07:11.287Z,20.10
2017-07-19T04:09:38.843Z,20.30
2017-07-19T04:12:06.406Z,20.30
2017-07-19T04:14:33.994Z,20.30
2017-07-19T04:17:02.315Z,20.30
2017-07-19T04:19:29.899Z,20.30
2017-07-19T04:21:57.636Z,20.30
2017-07-19T04:24:25.183Z,20.40
2017-07-19T04:26:52.742Z,20.50
2017-07-19T04:29:20.306Z,20.50
2017-07-19T04:31:47.880Z,20.50
2017-07-19T04:34:15.468Z,20.50
2017-07-19T04:36:43.025Z,20.60
2017-07-19T04:39:10.601Z,20.80
2017-07-19T04:41:38.158Z,20.90
2017-07-19T04:44:05.709Z,21.00
2017-07-19T04:46:33.258Z,21.10
2017-07-19T04:49:00.839Z,21.20
2017-07-19T04:51:28.410Z,21.20
2017-07-19T04:53:55.972Z,21.30
2017-07-19T04:56:23.522Z,21.20
2017-07-19T04:58:51.893Z,21.30
2017-07-19T05:01:19.465Z,21.30
2017-07-19T05:03:47.053Z,21.40
2017-07-19T05:06:14.612Z,21.30
2017-07-19T05:08:42.167Z,21.40
2017-07-19T05:11:09.722Z,21.40
2017-07-19T05:13:37.286Z,21.40
2017-07-19T05:16:04.827Z,21.50
2017-07-19T05:18:32.387Z,21.60
2017-07-19T05:20:59.937Z,21.60
2017-07-19T05:23:27.525Z,21.70
2017-07-19T05:25:55.090Z,22.00
2017-07-19T05:28:22.641Z,22.10
2017-07-19T05:30:50.202Z,22.70
2017-07-19T05:33:18.681Z,24.20
2017-07-19T05:35:46.233Z,24.10
2017-07-19T05:38:13.897Z,24.50
2017-07-19T05:40:41.486Z,24.90
2017-07-19T05:43:09.065Z,25.20
2017-07-19T05:45:36.650Z,25.50
2017-07-19T05:48:05.087Z,26.50
2017-07-19T05:50:32.647Z,26.50
2017-07-19T05:53:00.218Z,27.10
2017-07-19T05:55:28.079Z,27.80
2017-07-19T05:57:55.726Z,27.50
2017-07-19T06:00:23.325Z,27.20
2017-07-19T06:02:50.905Z,27.40
2017-07-19T06:05:19.246Z,28.00
2017-07-19T06:07:47.814Z,28.00
2017-07-19T06:10:15.426Z,27.90
2017-07-19T06:12:43.794Z,28.20
2017-07-19T06:15:11.358Z,28.20
2017-07-19T06:17:38.928Z,28.20
2017-07-19T06:20:06.477Z,28.60
2017-07-19T06:22:34.070Z,28.60
2017-07-19T06:25:02.493Z,28.80
2017-07-19T06:27:30.073Z,28.80
2017-07-19T06:29:57.661Z,29.20
2017-07-19T06:32:25.370Z,29.50
2017-07-19T06:34:52.947Z,30.40
2017-07-19T06:37:20.507Z,30.40
2017-07-19T06:39:48.084Z,30.50
2017-07-19T06:42:15.746Z,30.40
2017-07-19T06:44:43.323Z,30.00
2017-07-19T06:47:10.955Z,30.30
2017-07-19T06:49:38.524Z,30.20
2017-07-19T06:52:06.185Z,30.90
2017-07-19T06:54:33.803Z,31.10
2017-07-19T06:57:01.391Z,31.10
2017-07-19T06:59:28.985Z,30.80
2017-07-19T07:01:56.635Z,30.90
2017-07-19T07:04:24.198Z,30.90
2017-07-19T07:06:51.782Z,31.50
2017-07-19T07:09:19.532Z,32.10
2017-07-19T07:11:47.151Z,31.70
2017-07-19T07:14:15.558Z,30.60
2017-07-19T07:16:43.144Z,30.60
2017-07-19T07:19:10.711Z,30.80
2017-07-19T07:21:38.280Z,31.30
2017-07-19T07:24:05.863Z,31.60
2017-07-19T07:26:33.411Z,32.10
2017-07-19T07:29:00.972Z,32.10
2017-07-19T07:31:28.542Z,32.00
2017-07-19T07:33:56.135Z,31.90
2017-07-19T07:36:23.682Z,32.10
2017-07-19T07:38:51.296Z,32.10
2017-07-19T07:41:18.850Z,31.80
2017-07-19T07:43:46.494Z,31.40
2017-07-19T07:46:14.816Z,31.60
2017-07-19T07:48:42.398Z,31.60
2017-07-19T07:51:09.979Z,32.20
2017-07-19T07:53:37.543Z,32.00
2017-07-19T07:56:05.157Z,31.40
2017-07-19T07:58:32.829Z,32.10
2017-07-19T08:01:00.415Z,32.40
2017-07-19T08:03:27.991Z,32.50
2017-07-19T08:05:55.548Z,32.80
2017-07-19T08:08:23.917Z,33.10
2017-07-19T08:10:51.505Z,33.00
2017-07-19T08:13:19.073Z,33.00
2017-07-19T08:15:48.181Z,33.10
2017-07-19T08:18:15.774Z,33.10
2017-07-19T08:20:43.343Z,33.10
2017-07-19T08:23:10.903Z,33.60
2017-07-19T08:25:38.651Z,34.30
2017-07-19T08:28:06.236Z,34.20
2017-07-19T08:30:33.818Z,34.70
2017-07-19T08:33:01.396Z,34.60
2017-07-19T08:35:28.983Z,33.60
2017-07-19T08:37:56.534Z,33.30
2017-07-19T08:40:24.097Z,34.00
2017-07-19T08:42:51.688Z,34.30
2017-07-19T08:45:19.255Z,34.10
2017-07-19T08:47:46.817Z,34.70
2017-07-19T08:50:14.367Z,33.60
2017-07-19T08:52:42.718Z,35.10
2017-07-19T08:55:10.289Z,35.10
2017-07-19T08:57:37.842Z,35.70
2017-07-19T09:00:05.438Z,35.60
2017-07-19T09:02:33.778Z,36.00
2017-07-19T09:05:01.321Z,36.00
2017-07-19T09:07:28.936Z,36.10
2017-07-19T09:09:56.533Z,36.00
2017-07-19T09:12:24.138Z,36.10
2017-07-19T09:14:51.709Z,35.50
2017-07-19T09:17:19.262Z,36.00
2017-07-19T09:19:46.945Z,36.00
2017-07-19T09:22:14.547Z,35.80
2017-07-19T09:24:42.158Z,35.60
2017-07-19T09:27:09.872Z,36.40
2017-07-19T09:29:37.431Z,35.40
2017-07-19T09:32:04.993Z,35.00
2017-07-19T09:34:32.562Z,35.30
2017-07-19T09:37:00.135Z,35.00
2017-07-19T09:39:27.734Z,35.60
2017-07-19T09:41:55.463Z,35.80
2017-07-19T09:44:23.110Z,36.20
2017-07-19T09:46:50.654Z,36.10
2017-07-19T09:49:18.978Z,36.00
2017-07-19T09:51:46.567Z,36.10
2017-07-19T09:54:14.148Z,35.70
2017-07-19T09:56:41.748Z,36.10
2017-07-19T09:59:09.362Z,36.70
2017-07-19T10:01:36.954Z,36.90
2017-07-19T10:04:05.296Z,36.70
2017-07-19T10:06:32.863Z,36.60
2017-07-19T10:09:00.458Z,36.30
2017-07-19T10:11:28.791Z,36.20
2017-07-19T10:13:56.347Z,36.00
2017-07-19T10:16:24.121Z,35.60
2017-07-19T10:18:51.694Z,35.60
2017-07-19T10:21:19.283Z,35.90
2017-07-19T10:23:46.839Z,36.80
2017-07-19T10:26:14.426Z,35.80
2017-07-19T10:28:42.774Z,35.50
2017-07-19T10:31:10.454Z,35.50
2017-07-19T10:33:38.069Z,35.50
2017-07-19T10:36:05.636Z,36.30
2017-07-19T10:38:33.189Z,35.90
2017-07-19T10:41:00.856Z,36.30
2017-07-19T10:43:28.429Z,36.40
2017-07-19T10:45:56.001Z,36.70
2017-07-19T10:48:23.646Z,37.10
2017-07-19T10:50:51.242Z,37.00
2017-07-19T10:53:18.826Z,36.40
2017-07-19T10:55:47.178Z,35.30
2017-07-19T10:58:14.772Z,35.30
2017-07-19T11:00:42.377Z,35.20
2017-07-19T11:03:09.958Z,35.20
2017-07-19T11:05:37.523Z,35.80
2017-07-19T11:08:05.102Z,36.10
2017-07-19T11:10:32.652Z,36.60
2017-07-19T11:13:00.299Z,37.30
2017-07-19T11:15:27.899Z,37.00
2017-07-19T11:17:55.491Z,35.70
2017-07-19T11:20:23.841Z,33.50
2017-07-19T11:22:51.467Z,33.50
2017-07-19T11:25:19.087Z,32.70
2017-07-19T11:27:46.749Z,32.80
2017-07-19T11:30:14.321Z,33.20
2017-07-19T11:32:41.902Z,34.20
2017-07-19T11:35:09.483Z,35.40
2017-07-19T11:37:37.089Z,35.30
2017-07-19T11:40:04.777Z,34.80
2017-07-19T11:42:32.370Z,35.00
2017-07-19T11:44:59.956Z,35.60
2017-07-19T11:47:27.836Z,35.80
2017-07-19T11:49:55.402Z,36.20
2017-07-19T11:52:23.064Z,36.80
2017-07-19T11:54:50.642Z,36.50
2017-07-19T11:57:18.227Z,36.70
2017-07-19T11:59:45.897Z,36.90
2017-07-19T12:02:13.493Z,36.90
2017-07-19T12:04:41.110Z,36.40
2017-07-19T12:07:08.677Z,36.30
2017-07-19T12:09:36.226Z,35.90
2017-07-19T12:12:03.838Z,35.80
2017-07-19T12:14:32.179Z,35.30
2017-07-19T12:16:59.830Z,35.30
2017-07-19T12:19:27.403Z,35.80
2017-07-19T12:21:54.977Z,35.80
2017-07-19T12:24:22.530Z,36.00
2017-07-19T12:26:50.102Z,37.00
2017-07-19T12:29:17.671Z,37.80
2017-07-19T12:31:45.399Z,38.10
2017-07-19T12:34:12.987Z,38.90
2017-07-19T12:36:40.572Z,38.40
2017-07-19T12:39:08.169Z,37.70
2017-07-19T12:41:35.773Z,38.20
2017-07-19T12:44:03.337Z,38.40
2017-07-19T12:46:31.854Z,38.10
2017-07-19T12:48:59.667Z,38.20
2017-07-19T12:51:27.351Z,38.20
2017-07-19T12:53:54.937Z,37.80
2017-07-19T12:56:22.494Z,37.30
2017-07-19T12:58:50.078Z,36.10
2017-07-19T13:01:18.420Z,34.50
2017-07-19T13:03:46.042Z,34.40
2017-07-19T13:06:13.607Z,33.80
2017-07-19T13:08:41.162Z,33.50
2017-07-19T13:11:09.506Z,32.60
2017-07-19T13:13:37.117Z,32.50
2017-07-19T13:16:04.667Z,32.50
2017-07-19T13:18:32.230Z,32.40
2017-07-19T13:20:59.785Z,31.70
2017-07-19T13:23:27.435Z,30.50
2017-07-19T13:25:54.998Z,26.40
2017-07-19T13:28:22.578Z,23.50
2017-07-19T13:30:50.923Z,20.90
2017-07-19T13:33:18.482Z,20.90
2017-07-19T13:35:46.047Z,20.60
2017-07-19T13:38:13.680Z,20.50
2017-07-19T13:40:41.254Z,20.60
2017-07-19T13:43:08.909Z,20.70
2017-07-19T13:45:36.546Z,20.80
2017-07-19T13:48:04.237Z,20.70
2017-07-19T13:50:32.280Z,20.70
2017-07-19T13:53:00.607Z,20.70
2017-07-19T13:55:28.168Z,20.70
2017-07-19T13:57:55.754Z,20.70
2017-07-19T14:00:23.331Z,20.50
2017-07-19T14:02:51.718Z,20.50
2017-07-19T14:05:20.063Z,20.30
2017-07-19T14:07:47.647Z,20.20
2017-07-19T14:10:15.241Z,20.10
2017-07-19T14:12:42.803Z,19.30
2017-07-19T14:15:10.419Z,19.00
2017-07-19T14:17:37.997Z,18.90
2017-07-19T14:20:05.568Z,18.90
2017-07-19T14:22:33.139Z,18.70
2017-07-19T14:25:11.605Z,18.80
2017-07-19T14:27:39.164Z,18.80
2017-07-19T14:30:06.742Z,18.80
2017-07-19T14:32:34.315Z,18.80
2017-07-19T14:35:01.907Z,18.90
2017-07-19T14:37:30.261Z,19.10
2017-07-19T14:39:57.815Z,19.10
2017-07-19T14:42:26.364Z,19.10
2017-07-19T14:44:53.936Z,19.10
2017-07-19T14:47:21.491Z,19.00
2017-07-19T14:49:49.075Z,19.00
2017-07-19T14:52:16.650Z,19.10
2017-07-19T14:54:44.330Z,19.10
2017-07-19T14:57:11.894Z,19.10
2017-07-19T14:59:40.272Z,19.10
2017-07-19T15:02:07.852Z,19.00
2017-07-19T15:04:36.206Z,19.00
2017-07-19T15:07:03.818Z,19.00
2017-07-19T15:09:31.399Z,19.10
2017-07-19T15:11:59.156Z,19.10
2017-07-19T15:14:26.745Z,19.10
2017-07-19T15:16:54.313Z,19.10
2017-07-19T15:19:21.895Z,19.10
2017-07-19T15:21:49.448Z,19.00
2017-07-19T17:21:57.699Z,22.00
2017-07-19T17:24:25.267Z,22.00
2017-07-19T17:26:52.830Z,21.80
2017-07-19T17:29:20.402Z,21.80
2017-07-19T17:31:47.985Z,21.70
2017-07-19T17:34:16.323Z,21.80
2017-07-19T17:36:43.916Z,21.70
2017-07-19T17:39:12.356Z,21.70
2017-07-19T17:41:39.973Z,21.70
2017-07-19T17:44:07.571Z,21.60
2017-07-19T17:46:35.174Z,21.70
2017-07-19T17:49:02.759Z,21.80
2017-07-19T17:51:30.328Z,21.70
2017-07-19T17:53:58.662Z,21.80
2017-07-19T17:56:26.228Z,21.80
2017-07-19T17:58:53.829Z,21.80
2017-07-19T18:01:22.158Z,21.90
2017-07-19T18:03:49.726Z,21.80
2017-07-19T18:06:17.307Z,21.90
2017-07-19T18:08:44.988Z,21.90
2017-07-19T18:11:12.597Z,21.80
2017-07-19T18:13:41.279Z,21.80
2017-07-19T18:16:08.861Z,21.70
2017-07-19T18:18:36.498Z,21.70
2017-07-19T18:21:04.124Z,21.70
2017-07-19T18:23:31.713Z,21.60
2017-07-19T18:26:00.330Z,21.60
2017-07-19T18:28:27.954Z,21.60
2017-07-19T18:30:55.561Z,21.50
2017-07-19T18:33:23.126Z,21.50
2017-07-19T18:35:50.682Z,21.50
2017-07-19T18:38:18.329Z,21.40
2017-07-19T18:40:46.635Z,21.40
2017-07-19T18:43:14.226Z,21.40
2017-07-19T18:45:41.931Z,21.30
2017-07-19T18:48:09.520Z,21.20
2017-07-19T18:50:37.285Z,21.30
2017-07-19T18:53:04.886Z,21.30
2017-07-19T18:55:32.474Z,21.30
2017-07-19T18:58:00.039Z,21.30
2017-07-19T19:00:28.413Z,21.20
2017-07-19T19:02:55.990Z,21.20
2017-07-19T19:05:24.506Z,21.20
2017-07-19T19:07:52.144Z,21.10
2017-07-19T19:10:19.740Z,21.10
2017-07-19T19:12:47.442Z,21.00
2017-07-19T19:15:15.077Z,20.90
2017-07-19T19:17:48.078Z,20.90
2017-07-19T19:20:15.630Z,20.80
2017-07-19T19:22:43.247Z,20.60
2017-07-19T19:25:11.582Z,20.50
2017-07-19T19:27:39.289Z,20.40
2017-07-19T19:30:06.877Z,20.40
2017-07-19T19:32:34.442Z,20.40
2017-07-19T19:35:02.064Z,20.30
2017-07-19T19:40:37.277Z,20.10
2017-07-19T19:43:04.851Z,20.00
2017-07-19T19:45:32.390Z,20.00
2017-07-19T19:48:00.128Z,20.10
2017-07-19T19:50:27.726Z,20.00
2017-07-19T19:52:55.340Z,20.00
2017-07-19T19:55:22.936Z,20.00
2017-07-19T19:57:50.508Z,20.00
2017-07-19T20:00:18.095Z,19.90
2017-07-19T20:02:45.652Z,19.90
2017-07-19T20:05:13.249Z,19.80
2017-07-19T20:07:41.818Z,19.80
2017-07-19T20:10:09.404Z,19.80
2017-07-19T20:12:37.010Z,19.80
2017-07-19T20:15:04.575Z,19.90
2017-07-19T20:17:32.173Z,19.90
2017-07-19T20:19:59.751Z,20.00
2017-07-19T20:28:31.818Z,20.00
2017-07-19T20:30:59.501Z,19.90
2017-07-19T20:33:27.096Z,19.90
2017-07-19T20:35:54.678Z,19.90
2017-07-19T20:38:22.271Z,19.80
2017-07-19T20:40:49.859Z,19.70
2017-07-19T20:43:17.471Z,19.70
2017-07-19T20:45:45.166Z,19.60
2017-07-19T20:48:12.748Z,19.50
2017-07-19T20:50:40.402Z,19.40
2017-07-19T20:53:08.067Z,19.40
2017-07-19T20:55:35.830Z,19.40
2017-07-19T20:58:03.777Z,19.40
2017-07-19T21:00:31.350Z,19.40
2017-07-19T21:02:59.000Z,19.40
2017-07-19T21:05:26.640Z,19.40
2017-07-19T21:07:54.268Z,19.50
2017-07-19T21:10:22.038Z,19.50
2017-07-19T21:12:49.643Z,19.50
2017-07-19T21:15:17.216Z,19.40
2017-07-19T21:17:44.977Z,19.20
2017-07-19T21:20:13.394Z,19.10
2017-07-19T21:22:41.061Z,19.10
2017-07-19T21:25:08.649Z,19.20
2017-07-19T21:27:36.246Z,19.10
2017-07-19T21:30:04.004Z,19.10
2017-07-19T21:32:31.665Z,19.00
2017-07-19T21:35:00.284Z,19.10
2017-07-19T21:37:27.857Z,19.20
2017-07-19T21:39:55.792Z,19.30
2017-07-19T21:42:23.442Z,19.20
2017-07-19T21:44:51.858Z,19.20
2017-07-19T21:47:19.521Z,19.20
2017-07-19T21:49:47.505Z,19.20
2017-07-19T21:52:15.315Z,19.20
2017-07-19T21:54:42.985Z,19.30
2017-07-19T21:57:10.878Z,19.30
2017-07-19T21:59:38.855Z,19.30
2017-07-19T22:02:06.945Z,19.30
2017-07-19T22:04:34.539Z,19.20
2017-07-19T22:07:02.270Z,19.20
2017-07-19T22:09:29.875Z,19.20
2017-07-19T22:11:57.466Z,19.30
2017-07-19T22:14:25.830Z,19.30
2017-07-19T22:16:53.405Z,19.20
2017-07-19T22:19:21.749Z,19.20
2017-07-19T22:21:49.310Z,19.20
2017-07-19T22:24:16.908Z,19.20
2017-07-19T22:26:47.689Z,19.20
2017-07-19T22:29:15.317Z,19.20
2017-07-19T22:31:43.843Z,19.20
2017-07-19T22:34:12.274Z,19.20
2017-07-19T22:36:40.958Z,19.30
2017-07-19T22:39:09.527Z,19.30
2017-07-19T22:41:37.114Z,19.30
2017-07-19T22:44:05.492Z,19.30
2017-07-19T22:46:33.057Z,19.20
2017-07-19T22:49:01.490Z,19.40
2017-07-19T22:51:29.105Z,19.40
2017-07-19T22:53:57.519Z,19.50
2017-07-19T22:56:25.163Z,19.50
2017-07-19T22:58:52.737Z,19.50
2017-07-19T23:01:20.289Z,19.40
2017-07-19T23:03:47.871Z,19.50
2017-07-19T23:06:15.457Z,19.50
2017-07-19T23:08:43.031Z,19.40
2017-07-19T23:11:10.596Z,19.40
2017-07-19T23:13:38.222Z,19.30
2017-07-19T23:16:05.902Z,19.30
2017-07-19T23:18:33.463Z,19.20
2017-07-19T23:21:01.066Z,19.20
2017-07-19T23:23:29.399Z,19.10
2017-07-19T23:25:56.971Z,19.10
2017-07-19T23:28:24.536Z,19.10
2017-07-19T23:30:55.485Z,19.20
2017-07-19T23:33:23.044Z,19.20
2017-07-19T23:35:50.617Z,19.20
2017-07-19T23:38:18.206Z,19.30
2017-07-19T23:40:45.769Z,19.30
2017-07-19T23:43:14.122Z,19.30
2017-07-19T23:45:42.486Z,19.30
2017-07-19T23:48:10.055Z,19.30
2017-07-19T23:50:37.613Z,19.40
2017-07-19T23:53:05.169Z,19.40
2017-07-19T23:55:32.742Z,19.40
2017-07-19T23:58:00.291Z,19.30
